createdAt,value
2018-06-30T00:03:53.153Z,19.30
2018-06-30T00:06:21.638Z,19.20
2018-06-30T00:08:49.365Z,19.20
2018-06-30T00:11:17.010Z,19.10
2018-06-30T00:13:44.696Z,19.20
2018-06-30T00:16:12.336Z,19.10
2018-06-30T00:18:40.375Z,19.00
2018-06-30T00:21:08.354Z,19.00
2018-06-30T00:23:35.994Z,19.00
2018-06-30T00:26:03.797Z,19.10
2018-06-30T00:28:31.442Z,19.10
2018-06-30T00:30:59.080Z,19.10
2018-06-30T00:33:26.796Z,19.10
2018-06-30T00:35:54.528Z,19.10
2018-06-30T00:38:22.279Z,19.00
2018-06-30T00:40:49.896Z,19.10
2018-06-30T00:43:17.576Z,18.90
2018-06-30T00:45:45.200Z,18.80
2018-06-30T00:48:12.880Z,18.80
2018-06-30T00:50:40.529Z,18.90
2018-06-30T00:53:08.124Z,18.90
2018-06-30T00:55:35.716Z,18.90
2018-06-30T00:58:03.356Z,18.80
2018-06-30T01:00:30.952Z,18.70
2018-06-30T01:02:58.610Z,18.60
2018-06-30T01:05:26.252Z,18.60
2018-06-30T01:07:54.094Z,18.60
2018-06-30T01:10:21.728Z,18.60
2018-06-30T01:12:49.376Z,18.70
2018-06-30T01:15:17.043Z,18.60
2018-06-30T01:17:44.650Z,18.50
2018-06-30T01:20:12.290Z,18.50
2018-06-30T01:22:39.917Z,18.40
2018-06-30T01:25:07.552Z,18.30
2018-06-30T01:27:35.240Z,18.30
2018-06-30T01:30:02.979Z,18.40
2018-06-30T01:32:30.643Z,18.30
2018-06-30T01:34:58.249Z,18.30
2018-06-30T01:37:25.855Z,18.40
2018-06-30T01:42:21.031Z,18.20
2018-06-30T01:44:48.674Z,18.20
2018-06-30T01:47:16.322Z,18.20
2018-06-30T01:49:43.968Z,18.20
2018-06-30T01:52:11.616Z,18.10
2018-06-30T01:54:39.225Z,18.10
2018-06-30T01:57:06.887Z,18.00
2018-06-30T01:59:34.643Z,17.90
2018-06-30T02:04:30.148Z,17.90
2018-06-30T02:06:57.773Z,17.90
2018-06-30T02:09:25.419Z,17.90
2018-06-30T02:11:53.089Z,17.80
2018-06-30T02:14:20.713Z,17.80
2018-06-30T02:16:48.379Z,17.80
2018-06-30T02:19:16.043Z,17.80
2018-06-30T02:21:43.697Z,17.80
2018-06-30T02:24:11.327Z,17.90
2018-06-30T02:26:38.960Z,18.00
2018-06-30T02:29:06.686Z,17.90
2018-06-30T02:31:34.311Z,17.90
2018-06-30T02:34:01.976Z,18.00
2018-06-30T02:36:29.594Z,18.00
2018-06-30T02:38:57.244Z,18.00
2018-06-30T02:41:24.905Z,17.80
2018-06-30T02:43:52.731Z,17.80
2018-06-30T02:46:20.365Z,17.80
2018-06-30T02:48:48.015Z,17.70
2018-06-30T02:51:15.619Z,17.60
2018-06-30T02:56:10.863Z,17.70
2018-06-30T02:58:38.472Z,17.50
2018-06-30T03:01:06.161Z,17.50
2018-06-30T03:03:33.871Z,17.40
2018-06-30T03:06:01.773Z,17.40
2018-06-30T03:08:29.741Z,17.40
2018-06-30T03:10:57.411Z,17.40
2018-06-30T03:13:25.045Z,17.40
2018-06-30T03:15:52.641Z,17.40
2018-06-30T03:20:47.917Z,17.40
2018-06-30T03:23:15.557Z,17.40
2018-06-30T03:25:43.235Z,17.40
2018-06-30T03:30:38.498Z,17.40
2018-06-30T03:33:06.265Z,17.40
2018-06-30T03:35:33.921Z,17.40
2018-06-30T03:38:01.577Z,17.40
2018-06-30T03:40:29.237Z,17.30
2018-06-30T03:42:56.872Z,17.30
2018-06-30T03:45:24.507Z,17.30
2018-06-30T03:47:52.207Z,17.30
2018-06-30T03:50:19.819Z,17.30
2018-06-30T03:52:47.476Z,17.30
2018-06-30T03:55:15.119Z,17.40
2018-06-30T03:57:42.760Z,17.30
2018-06-30T04:00:10.589Z,17.30
2018-06-30T04:02:38.237Z,17.30
2018-06-30T04:05:05.889Z,17.30
2018-06-30T04:07:33.615Z,17.30
2018-06-30T04:10:01.252Z,17.40
2018-06-30T04:12:29.081Z,17.40
2018-06-30T04:14:56.746Z,17.40
2018-06-30T04:17:24.391Z,17.40
2018-06-30T04:19:52.017Z,17.40
2018-06-30T04:22:19.698Z,17.40
2018-06-30T04:27:14.876Z,17.50
2018-06-30T04:29:42.489Z,17.40
2018-06-30T04:32:10.082Z,17.40
2018-06-30T04:34:37.695Z,17.50
2018-06-30T04:37:05.315Z,17.60
2018-06-30T04:39:32.997Z,17.60
2018-06-30T04:42:00.645Z,17.60
2018-06-30T04:44:28.299Z,17.70
2018-06-30T04:46:55.946Z,17.70
2018-06-30T04:49:23.751Z,17.70
2018-06-30T04:51:51.361Z,17.70
2018-06-30T04:54:18.993Z,17.70
2018-06-30T04:56:46.613Z,17.80
2018-06-30T04:59:14.225Z,17.90
2018-06-30T05:01:41.850Z,18.00
2018-06-30T05:04:09.460Z,18.10
2018-06-30T05:06:37.134Z,18.30
2018-06-30T05:09:06.274Z,18.30
2018-06-30T05:11:33.889Z,18.30
2018-06-30T05:14:01.588Z,18.30
2018-06-30T05:16:29.239Z,18.50
2018-06-30T05:18:56.870Z,18.50
2018-06-30T05:21:24.510Z,18.60
2018-06-30T05:23:52.142Z,18.70
2018-06-30T05:28:47.335Z,18.80
2018-06-30T05:31:14.961Z,18.90
2018-06-30T05:33:42.802Z,19.00
2018-06-30T05:38:37.786Z,19.10
2018-06-30T05:41:05.570Z,19.20
2018-06-30T05:43:33.174Z,19.10
2018-06-30T05:46:00.868Z,19.20
2018-06-30T05:48:28.504Z,19.40
2018-06-30T05:50:56.250Z,19.40
2018-06-30T05:53:23.897Z,19.60
2018-06-30T05:55:51.520Z,19.50
2018-06-30T05:58:19.139Z,19.50
2018-06-30T06:00:46.807Z,19.70
2018-06-30T06:03:14.442Z,19.60
2018-06-30T06:05:42.108Z,19.70
2018-06-30T06:08:09.744Z,19.80
2018-06-30T06:10:37.392Z,19.80
2018-06-30T06:13:05.032Z,20.10
2018-06-30T06:15:32.692Z,20.20
2018-06-30T06:18:00.330Z,20.30
2018-06-30T06:20:27.979Z,20.20
2018-06-30T06:22:55.623Z,20.40
2018-06-30T06:25:23.245Z,20.50
2018-06-30T06:27:50.893Z,20.70
2018-06-30T06:30:18.551Z,20.80
2018-06-30T06:32:46.205Z,20.90
2018-06-30T06:35:13.910Z,20.80
2018-06-30T06:37:41.587Z,20.90
2018-06-30T06:40:09.238Z,21.10
2018-06-30T06:45:04.500Z,21.10
2018-06-30T06:47:32.127Z,21.30
2018-06-30T06:49:59.778Z,21.40
2018-06-30T06:52:27.455Z,21.50
2018-06-30T06:54:55.087Z,21.40
2018-06-30T06:57:22.735Z,21.40
2018-06-30T06:59:50.384Z,21.40
2018-06-30T07:02:18.030Z,21.50
2018-06-30T07:04:45.776Z,21.60
2018-06-30T07:07:13.403Z,21.80
2018-06-30T07:09:41.024Z,21.90
2018-06-30T07:12:08.677Z,21.90
2018-06-30T07:14:36.326Z,22.00
2018-06-30T07:17:03.971Z,22.10
2018-06-30T07:19:31.639Z,22.20
2018-06-30T07:21:59.269Z,22.20
2018-06-30T07:24:26.917Z,22.40
2018-06-30T07:26:54.555Z,22.50
2018-06-30T07:31:49.749Z,22.70
2018-06-30T07:34:17.449Z,22.60
2018-06-30T07:36:45.090Z,22.80
2018-06-30T07:39:12.761Z,23.10
2018-06-30T07:41:41.049Z,23.20
2018-06-30T07:44:08.675Z,23.10
2018-06-30T07:46:36.342Z,23.20
2018-06-30T07:49:04.020Z,23.20
2018-06-30T07:51:31.707Z,23.40
2018-06-30T07:53:59.483Z,23.50
2018-06-30T07:56:27.150Z,23.70
2018-06-30T07:58:54.809Z,23.90
2018-06-30T08:01:22.526Z,23.90
2018-06-30T08:03:50.177Z,24.20
2018-06-30T08:06:17.787Z,24.40
2018-06-30T08:08:45.423Z,24.40
2018-06-30T08:11:13.082Z,24.70
2018-06-30T08:13:40.713Z,24.50
2018-06-30T08:16:08.350Z,24.60
2018-06-30T08:18:35.998Z,24.80
2018-06-30T08:21:03.669Z,24.80
2018-06-30T08:23:31.333Z,24.80
2018-06-30T08:25:59.029Z,25.00
2018-06-30T08:28:26.707Z,25.20
2018-06-30T08:30:54.321Z,25.20
2018-06-30T08:33:21.981Z,25.20
2018-06-30T08:35:49.646Z,25.30
2018-06-30T08:38:17.304Z,25.50
2018-06-30T08:40:44.944Z,25.70
2018-06-30T08:43:12.592Z,26.00
2018-06-30T08:45:40.347Z,25.90
2018-06-30T08:48:07.994Z,26.00
2018-06-30T08:50:35.611Z,26.30
2018-06-30T08:53:03.268Z,26.30
2018-06-30T08:55:30.920Z,26.20
2018-06-30T08:57:58.531Z,26.20
2018-06-30T09:00:26.152Z,26.50
2018-06-30T09:02:53.786Z,26.60
2018-06-30T09:05:21.424Z,26.70
2018-06-30T09:07:49.048Z,26.60
2018-06-30T09:10:16.682Z,26.90
2018-06-30T09:12:44.328Z,27.00
2018-06-30T09:15:11.977Z,27.20
2018-06-30T09:17:39.626Z,27.40
2018-06-30T09:20:07.266Z,27.50
2018-06-30T09:22:34.896Z,27.70
2018-06-30T09:25:02.552Z,27.60
2018-06-30T09:27:30.196Z,27.60
2018-06-30T09:29:57.826Z,27.80
2018-06-30T09:32:25.494Z,27.90
2018-06-30T09:34:53.136Z,28.10
2018-06-30T09:37:20.797Z,28.10
2018-06-30T09:39:48.464Z,28.40
2018-06-30T09:42:16.104Z,28.30
2018-06-30T09:44:43.750Z,28.50
2018-06-30T09:47:11.384Z,28.60
2018-06-30T09:49:39.010Z,28.70
2018-06-30T09:52:06.392Z,28.90
2018-06-30T09:54:34.122Z,29.20
2018-06-30T09:57:01.784Z,29.50
2018-06-30T09:59:29.451Z,29.60
2018-06-30T10:01:57.070Z,29.50
2018-06-30T10:04:24.732Z,29.60
2018-06-30T10:06:52.425Z,29.70
2018-06-30T10:09:20.056Z,29.70
2018-06-30T10:11:47.688Z,30.00
2018-06-30T10:16:42.912Z,29.90
2018-06-30T10:19:10.643Z,30.20
2018-06-30T10:21:38.199Z,30.40
2018-06-30T10:24:05.869Z,30.20
2018-06-30T10:26:33.536Z,30.40
2018-06-30T10:29:01.176Z,30.40
2018-06-30T10:31:28.848Z,30.70
2018-06-30T10:33:56.492Z,31.00
2018-06-30T10:36:24.133Z,31.20
2018-06-30T10:38:51.836Z,31.40
2018-06-30T10:41:19.455Z,31.50
2018-06-30T10:43:47.120Z,31.50
2018-06-30T10:46:14.818Z,31.70
2018-06-30T10:48:42.508Z,32.00
2018-06-30T10:51:10.159Z,32.10
2018-06-30T10:53:37.812Z,31.90
2018-06-30T10:56:05.481Z,32.20
2018-06-30T10:58:33.141Z,32.50
2018-06-30T11:01:00.782Z,32.70
2018-06-30T11:03:28.417Z,32.90
2018-06-30T11:05:56.149Z,33.00
2018-06-30T11:08:23.703Z,33.30
2018-06-30T11:10:51.363Z,33.40
2018-06-30T11:13:18.977Z,33.30
2018-06-30T11:15:46.656Z,33.70
2018-06-30T11:18:14.303Z,33.80
2018-06-30T11:20:41.964Z,34.10
2018-06-30T11:23:09.650Z,34.40
2018-06-30T11:25:37.333Z,34.60
2018-06-30T11:30:32.790Z,35.10
2018-06-30T11:33:00.533Z,34.90
2018-06-30T11:35:28.174Z,34.70
2018-06-30T11:37:55.830Z,34.40
2018-06-30T11:40:23.444Z,34.40
2018-06-30T11:42:51.128Z,34.60
2018-06-30T11:45:18.753Z,34.60
2018-06-30T11:47:46.362Z,34.70
2018-06-30T11:50:14.005Z,35.10
2018-06-30T11:52:41.617Z,35.20
2018-06-30T11:57:36.800Z,35.70
2018-06-30T12:00:04.857Z,35.90
2018-06-30T12:02:32.501Z,36.20
2018-06-30T12:05:00.095Z,36.00
2018-06-30T12:07:27.716Z,36.00
2018-06-30T12:09:55.340Z,36.00
2018-06-30T12:12:22.966Z,36.20
2018-06-30T12:14:50.621Z,36.30
2018-06-30T12:17:18.212Z,36.40
2018-06-30T12:19:45.877Z,36.40
2018-06-30T12:22:13.565Z,36.60
2018-06-30T12:24:41.204Z,36.80
2018-06-30T12:27:08.847Z,36.90
2018-06-30T12:29:36.505Z,37.00
2018-06-30T12:32:04.194Z,36.70
2018-06-30T12:34:31.850Z,37.20
2018-06-30T12:39:27.101Z,37.50
2018-06-30T12:41:54.729Z,37.70
2018-06-30T12:44:22.415Z,37.60
2018-06-30T12:46:50.082Z,37.60
2018-06-30T12:49:17.744Z,37.90
2018-06-30T12:51:45.418Z,38.40
2018-06-30T12:54:13.188Z,38.70
2018-06-30T12:56:40.796Z,38.80
2018-06-30T13:01:36.008Z,38.40
2018-06-30T13:04:03.676Z,38.70
2018-06-30T13:06:31.334Z,39.10
2018-06-30T13:08:58.964Z,39.20
2018-06-30T13:11:26.605Z,39.60
2018-06-30T13:13:54.356Z,39.30
2018-06-30T13:16:22.012Z,39.10
2018-06-30T13:18:49.645Z,38.40
2018-06-30T13:21:17.696Z,38.60
2018-06-30T13:23:45.342Z,39.10
2018-06-30T13:26:13.060Z,39.50
2018-06-30T13:28:40.773Z,39.40
2018-06-30T13:31:08.354Z,39.00
2018-06-30T13:33:35.973Z,39.30
2018-06-30T13:36:03.613Z,39.80
2018-06-30T13:38:31.164Z,40.30
2018-06-30T13:40:58.804Z,40.30
2018-06-30T13:43:26.573Z,40.60
2018-06-30T13:45:54.174Z,40.10
2018-06-30T13:48:21.793Z,40.20
2018-06-30T13:50:49.416Z,40.50
2018-06-30T13:53:17.016Z,40.40
2018-06-30T13:55:44.611Z,40.60
2018-06-30T13:58:12.207Z,40.30
2018-06-30T14:00:39.848Z,40.40
2018-06-30T14:03:07.486Z,40.70
2018-06-30T14:05:35.156Z,40.80
2018-06-30T14:08:02.771Z,41.30
2018-06-30T14:12:58.039Z,41.80
2018-06-30T14:15:25.732Z,41.70
2018-06-30T14:17:53.362Z,41.10
2018-06-30T14:20:21.024Z,41.20
2018-06-30T14:25:16.224Z,41.80
2018-06-30T14:27:43.861Z,41.00
2018-06-30T14:30:12.380Z,41.30
2018-06-30T14:32:40.577Z,41.40
2018-06-30T14:35:08.733Z,41.50
2018-06-30T14:37:36.659Z,41.00
2018-06-30T14:40:04.698Z,41.50
2018-06-30T14:42:32.348Z,42.00
2018-06-30T14:44:59.978Z,42.60
2018-06-30T14:47:27.649Z,43.00
2018-06-30T14:49:55.282Z,42.80
2018-06-30T14:52:22.970Z,42.20
2018-06-30T14:54:50.617Z,41.90
2018-06-30T14:57:18.353Z,42.40
2018-06-30T14:59:45.996Z,42.80
2018-06-30T15:02:13.661Z,43.10
2018-06-30T15:04:41.301Z,42.50
2018-06-30T15:07:08.998Z,42.50
2018-06-30T15:09:36.630Z,42.00
2018-06-30T15:12:04.276Z,43.20
2018-06-30T15:14:31.910Z,44.70
2018-06-30T15:16:59.533Z,44.40
2018-06-30T15:19:27.188Z,44.00
2018-06-30T15:21:54.798Z,44.20
2018-06-30T15:24:22.417Z,44.00
2018-06-30T15:26:50.039Z,44.00
2018-06-30T15:29:17.680Z,44.20
2018-06-30T15:31:45.344Z,44.20
2018-06-30T15:34:13.005Z,44.30
2018-06-30T15:36:40.677Z,43.60
2018-06-30T15:39:09.401Z,43.90
2018-06-30T15:41:37.116Z,44.20
2018-06-30T15:44:05.020Z,43.90
2018-06-30T15:46:32.698Z,44.20
2018-06-30T15:49:00.364Z,44.00
2018-06-30T15:51:28.000Z,44.00
2018-06-30T15:53:55.663Z,44.70
2018-06-30T15:56:23.351Z,44.90
2018-06-30T15:58:50.997Z,45.20
2018-06-30T16:01:18.657Z,45.20
2018-06-30T16:03:47.129Z,45.50
2018-06-30T16:06:14.753Z,45.80
2018-06-30T16:08:42.418Z,46.00
2018-06-30T16:11:10.075Z,45.60
2018-06-30T16:13:37.682Z,45.40
2018-06-30T16:16:05.623Z,45.10
2018-06-30T16:18:33.303Z,45.70
2018-06-30T16:21:00.935Z,45.00
2018-06-30T16:23:28.602Z,44.40
2018-06-30T16:25:56.214Z,44.50
2018-06-30T16:28:23.858Z,44.40
2018-06-30T16:30:51.487Z,44.60
2018-06-30T16:33:19.118Z,44.80
2018-06-30T16:35:46.747Z,45.20
2018-06-30T16:38:14.453Z,45.10
2018-06-30T16:40:42.079Z,44.80
2018-06-30T16:43:09.708Z,44.40
2018-06-30T16:45:37.402Z,43.60
2018-06-30T16:48:05.143Z,42.90
2018-06-30T16:50:32.756Z,42.50
2018-06-30T16:53:00.364Z,42.30
2018-06-30T16:55:28.010Z,42.70
2018-06-30T16:57:55.654Z,43.00
2018-06-30T17:00:23.347Z,43.40
2018-06-30T17:02:50.995Z,43.40
2018-06-30T17:05:18.667Z,43.90
2018-06-30T17:07:46.304Z,44.00
2018-06-30T17:10:13.989Z,43.80
2018-06-30T17:12:41.637Z,43.60
2018-06-30T17:15:09.356Z,44.20
2018-06-30T17:17:37.031Z,44.40
2018-06-30T17:20:04.764Z,44.30
2018-06-30T17:22:32.428Z,44.20
2018-06-30T17:25:00.070Z,44.50
2018-06-30T17:27:27.719Z,44.90
2018-06-30T17:29:55.383Z,44.70
2018-06-30T17:32:23.071Z,44.70
2018-06-30T17:34:50.705Z,44.30
2018-06-30T17:37:18.371Z,44.30
2018-06-30T17:39:46.122Z,43.80
2018-06-30T17:42:13.749Z,43.80
2018-06-30T17:44:41.419Z,43.70
2018-06-30T17:47:09.065Z,43.50
2018-06-30T17:49:36.695Z,43.40
2018-06-30T17:52:04.373Z,43.60
2018-06-30T17:54:32.025Z,43.50
2018-06-30T17:56:59.671Z,43.30
2018-06-30T17:59:27.303Z,43.20
2018-06-30T18:01:54.967Z,42.60
2018-06-30T18:04:22.600Z,42.60
2018-06-30T18:06:50.252Z,42.50
2018-06-30T18:09:17.965Z,42.30
2018-06-30T18:11:45.626Z,42.10
2018-06-30T18:14:13.313Z,41.70
2018-06-30T18:16:40.920Z,41.40
2018-06-30T18:19:08.580Z,40.70
2018-06-30T18:21:36.245Z,40.10
2018-06-30T18:24:04.141Z,39.20
2018-06-30T18:26:31.883Z,38.80
2018-06-30T18:28:59.524Z,38.40
2018-06-30T18:31:27.187Z,38.00
2018-06-30T18:33:54.785Z,37.30
2018-06-30T18:36:22.456Z,37.00
2018-06-30T18:38:50.119Z,36.60
2018-06-30T18:41:17.798Z,36.30
2018-06-30T18:43:45.434Z,35.80
2018-06-30T18:46:13.098Z,35.60
2018-06-30T18:48:40.781Z,35.40
2018-06-30T18:51:08.428Z,34.90
2018-06-30T18:53:36.094Z,34.50
2018-06-30T18:56:04.018Z,34.40
2018-06-30T18:58:31.676Z,34.10
2018-06-30T19:00:59.352Z,33.60
2018-06-30T19:03:26.982Z,33.30
2018-06-30T19:05:54.654Z,33.30
2018-06-30T19:08:22.323Z,33.20
2018-06-30T19:10:49.980Z,33.20
2018-06-30T19:13:17.606Z,33.20
2018-06-30T19:15:45.300Z,33.10
2018-06-30T19:18:12.908Z,32.90
2018-06-30T19:20:40.554Z,32.60
2018-06-30T19:23:08.236Z,32.30
2018-06-30T19:25:35.879Z,32.20
2018-06-30T19:28:03.574Z,32.00
2018-06-30T19:30:31.220Z,31.90
2018-06-30T19:32:58.900Z,31.70
2018-06-30T19:35:26.525Z,31.70
2018-06-30T19:37:54.188Z,31.50
2018-06-30T19:40:21.902Z,31.50
2018-06-30T19:42:49.574Z,31.40
2018-06-30T19:45:17.249Z,31.20
2018-06-30T19:47:45.120Z,31.00
2018-06-30T19:50:12.832Z,30.90
2018-06-30T19:52:40.600Z,30.80
2018-06-30T19:55:08.226Z,30.70
2018-06-30T19:57:35.950Z,30.60
2018-06-30T20:00:04.710Z,30.50
2018-06-30T20:02:32.368Z,30.30
2018-06-30T20:07:27.836Z,30.20
2018-06-30T20:09:55.506Z,30.10
2018-06-30T20:12:23.152Z,30.10
2018-06-30T20:14:50.804Z,30.00
2018-06-30T20:17:18.430Z,29.90
2018-06-30T20:19:46.116Z,29.80
2018-06-30T20:22:13.786Z,29.60
2018-06-30T20:24:41.436Z,29.50
2018-06-30T20:27:09.085Z,29.50
2018-06-30T20:29:36.740Z,29.30
2018-06-30T20:32:04.433Z,29.20
2018-06-30T20:34:32.046Z,29.10
2018-06-30T20:36:59.729Z,29.00
2018-06-30T20:39:27.376Z,28.90
2018-06-30T20:41:55.049Z,28.90
2018-06-30T20:44:22.715Z,28.80
2018-06-30T20:46:50.413Z,28.70
2018-06-30T20:49:18.042Z,28.70
2018-06-30T20:51:45.767Z,28.60
2018-06-30T20:54:13.481Z,28.50
2018-06-30T20:56:41.057Z,28.50
2018-06-30T20:59:08.708Z,28.40
2018-06-30T21:01:36.405Z,28.40
2018-06-30T21:04:04.045Z,28.30
2018-06-30T21:06:31.877Z,28.20
2018-06-30T21:08:59.598Z,28.20
2018-06-30T21:11:27.278Z,28.10
2018-06-30T21:13:54.995Z,28.00
2018-06-30T21:16:22.695Z,27.90
2018-06-30T21:18:50.347Z,27.80
2018-06-30T21:21:18.049Z,27.70
2018-06-30T21:23:45.792Z,27.70
2018-06-30T21:26:13.509Z,27.60
2018-06-30T21:28:41.193Z,27.60
2018-06-30T21:31:08.878Z,27.50
2018-06-30T21:33:36.547Z,27.50
2018-06-30T21:36:04.343Z,27.40
2018-06-30T21:38:32.063Z,27.30
2018-06-30T21:40:59.729Z,27.20
2018-06-30T21:43:27.357Z,27.10
2018-06-30T21:45:55.089Z,27.10
2018-06-30T21:48:22.753Z,27.00
2018-06-30T21:50:50.399Z,27.00
2018-06-30T21:53:18.071Z,27.00
2018-06-30T21:55:45.755Z,27.00
2018-06-30T21:58:13.407Z,26.90
2018-06-30T22:00:49.679Z,26.90
2018-06-30T22:03:20.493Z,26.80
2018-06-30T22:08:15.714Z,26.70
2018-06-30T22:10:43.421Z,26.70
2018-06-30T22:13:11.081Z,26.70
2018-06-30T22:15:38.794Z,26.50
2018-06-30T22:18:06.519Z,26.50
2018-06-30T22:20:34.940Z,26.40
2018-06-30T22:23:03.057Z,26.40
2018-06-30T22:25:31.071Z,26.40
2018-06-30T22:27:58.789Z,26.30
2018-06-30T22:30:26.508Z,26.20
2018-06-30T22:32:54.150Z,26.10
2018-06-30T22:35:21.837Z,26.00
2018-06-30T22:37:49.533Z,26.00
2018-06-30T22:40:18.497Z,26.00
2018-06-30T22:42:46.661Z,26.00
2018-06-30T22:45:15.153Z,25.90
2018-06-30T22:47:43.082Z,25.90
2018-06-30T22:50:10.680Z,25.80
2018-06-30T22:52:38.779Z,25.80
2018-06-30T22:55:06.708Z,25.70
2018-06-30T22:57:34.909Z,25.70
2018-06-30T23:00:02.690Z,25.60
2018-06-30T23:02:30.229Z,25.60
2018-06-30T23:04:57.894Z,25.60
2018-06-30T23:07:25.586Z,25.60
2018-06-30T23:09:53.611Z,25.50
2018-06-30T23:12:21.355Z,25.40
2018-06-30T23:14:49.142Z,25.50
2018-06-30T23:17:16.815Z,25.40
2018-06-30T23:22:12.209Z,25.30
2018-06-30T23:24:39.932Z,25.30
2018-06-30T23:27:07.604Z,25.20
2018-06-30T23:29:35.295Z,25.20
2018-06-30T23:32:03.002Z,25.20
2018-06-30T23:34:30.645Z,25.10
2018-06-30T23:36:58.299Z,25.00
2018-06-30T23:39:25.953Z,25.10
2018-06-30T23:41:53.665Z,25.00
2018-06-30T23:44:21.325Z,24.90
2018-06-30T23:46:49.012Z,24.90
2018-06-30T23:49:16.689Z,24.90
2018-06-30T23:51:44.392Z,24.90
2018-06-30T23:54:12.243Z,24.80
2018-06-30T23:56:39.920Z,24.80
2018-06-30T23:59:07.614Z,24.80
